^^
Station Historical Data
Daily Summary for October 13, 2017 Units:  Both    English   Metric
« Previous Day
Next Day »
Daily Weekly Monthly Yearly Custom
  High: Low: Average:
Temperature: TemperatureF °F /  -17.8 °C 50.9 °F /  10.5 °C 71.3 °F /  21.8 °C
Dew Point: DewpointF °F /  -17.8 °C -26.9 °F /  -32.7 °C 11.9 °F /  -11.2 °C
Humidity: Humidity% 1% 12%
Wind Speed: WindSpeedMPHmph /  0km/h - 1.6mph /  2.6km/h
Wind Gust: WindSpeedGustMPHmph /  0km/h - -
Wind- - West
Pressure: PressureIn in /  0 hPa 29.73 in /  1006.7 hPa -
Precipitation: 0.00 in /  0 mm    
Historical Graphs
 
 
Tabular Data for October 13, 2017
Time Temperature Dew Point Pressure Wind Wind Speed Wind Gust Humidity Rainfall Rate (Hourly) solar Conditions
TemperatureF °F /  -17.8 °C DewpointF °F /  -17.8 °C PressureInin /  0hPa Calm     Humidity% HourlyPrecipInin /  0mm SolarRadiationWatts/m^2 W/m2 Conditions
00:02 59.9 °F /  15.5 °C 10.6 °F /  -11.9 °C 29.88in /  1011.7hPa Calm   1.0mph /  1.6km/h 14% 0.00in /  0mm 0.0 W/m2
00:07 59.9 °F /  15.5 °C 12.2 °F /  -11 °C 29.88in /  1011.7hPa Calm     15% 0.00in /  0mm 0.0 W/m2
00:12 59.9 °F /  15.5 °C 10.6 °F /  -11.9 °C 29.87in /  1011.4hPa Calm   1.0mph /  1.6km/h 14% 0.00in /  0mm 0.0 W/m2
00:17 59.7 °F /  15.4 °C 10.4 °F /  -12 °C 29.87in /  1011.4hPa Calm   1.0mph /  1.6km/h 14% 0.00in /  0mm 0.0 W/m2
00:22 59.7 °F /  15.4 °C 12.0 °F /  -11.1 °C 29.87in /  1011.4hPa Calm   1.0mph /  1.6km/h 15% 0.00in /  0mm 0.0 W/m2
00:28 59.5 °F /  15.3 °C 11.8 °F /  -11.2 °C 29.86in /  1011.1hPa Calm     15% 0.00in /  0mm 0.0 W/m2
00:33 59.4 °F /  15.2 °C 11.7 °F /  -11.3 °C 29.86in /  1011.1hPa Calm   1.0mph /  1.6km/h 15% 0.00in /  0mm 0.0 W/m2
00:38 59.4 °F /  15.2 °C 11.7 °F /  -11.3 °C 29.86in /  1011.1hPa Calm   1.0mph /  1.6km/h 15% 0.00in /  0mm 0.0 W/m2
00:43 59.0 °F /  15 °C 12.9 °F /  -10.6 °C 29.86in /  1011.1hPa Calm     16% 0.00in /  0mm 0.0 W/m2
00:48 58.6 °F /  14.8 °C 12.6 °F /  -10.8 °C 29.86in /  1011.1hPa Calm     16% 0.00in /  0mm 0.0 W/m2
00:53 58.3 °F /  14.6 °C 12.2 °F /  -11 °C 29.86in /  1011.1hPa Calm   1.0mph /  1.6km/h 16% 0.00in /  0mm 0.0 W/m2
00:58 58.1 °F /  14.5 °C 12.2 °F /  -11 °C 29.86in /  1011.1hPa Calm   3.0mph /  4.8km/h 16% 0.00in /  0mm 0.0 W/m2
01:03 57.9 °F /  14.4 °C 12.0 °F /  -11.1 °C 29.86in /  1011.1hPa Calm   1.0mph /  1.6km/h 16% 0.00in /  0mm 0.0 W/m2
01:08 57.7 °F /  14.3 °C 11.8 °F /  -11.2 °C 29.86in /  1011.1hPa Calm     16% 0.00in /  0mm 0.0 W/m2
01:14 57.7 °F /  14.3 °C 11.8 °F /  -11.2 °C 29.86in /  1011.1hPa Calm     16% 0.00in /  0mm 0.0 W/m2
01:19 57.6 °F /  14.2 °C 13.1 °F /  -10.5 °C 29.86in /  1011.1hPa Calm     17% 0.00in /  0mm 0.0 W/m2
01:24 57.4 °F /  14.1 °C 12.9 °F /  -10.6 °C 29.85in /  1010.7hPa Calm     17% 0.00in /  0mm 0.0 W/m2
01:29 56.8 °F /  13.8 °C 13.8 °F /  -10.1 °C 29.85in /  1010.7hPa Calm     18% 0.00in /  0mm 0.0 W/m2
01:34 56.5 °F /  13.6 °C 13.5 °F /  -10.3 °C 29.85in /  1010.7hPa Calm     18% 0.00in /  0mm 0.0 W/m2
01:39 56.1 °F /  13.4 °C 13.1 °F /  -10.5 °C 29.85in /  1010.7hPa Calm     18% 0.00in /  0mm 0.0 W/m2
01:44 55.8 °F /  13.2 °C 14.2 °F /  -9.9 °C 29.85in /  1010.7hPa Calm     19% 0.00in /  0mm 0.0 W/m2
01:49 55.4 °F /  13 °C 13.8 °F /  -10.1 °C 29.85in /  1010.7hPa Calm     19% 0.00in /  0mm 0.0 W/m2
01:55 55.0 °F /  12.8 °C 13.5 °F /  -10.3 °C 29.85in /  1010.7hPa Calm     19% 0.00in /  0mm 0.0 W/m2
02:00 54.7 °F /  12.6 °C 13.3 °F /  -10.4 °C 29.85in /  1010.7hPa Calm     19% 0.00in /  0mm 0.0 W/m2
02:05 54.3 °F /  12.4 °C 14.0 °F /  -10 °C 29.85in /  1010.7hPa Calm     20% 0.00in /  0mm 0.0 W/m2
02:10 54.0 °F /  12.2 °C 13.8 °F /  -10.1 °C 29.84in /  1010.4hPa Calm     20% 0.00in /  0mm 0.0 W/m2
02:15 53.6 °F /  12 °C 12.4 °F /  -10.9 °C 29.84in /  1010.4hPa Calm     19% 0.00in /  0mm 0.0 W/m2
02:20 53.2 °F /  11.8 °C 12.0 °F /  -11.1 °C 29.84in /  1010.4hPa Calm     19% 0.00in /  0mm 0.0 W/m2
02:25 53.1 °F /  11.7 °C 11.8 °F /  -11.2 °C 29.84in /  1010.4hPa Calm     19% 0.00in /  0mm 0.0 W/m2
02:30 53.1 °F /  11.7 °C 13.1 °F /  -10.5 °C 29.84in /  1010.4hPa Calm     20% 0.00in /  0mm 0.0 W/m2
02:36 53.1 °F /  11.7 °C 13.1 °F /  -10.5 °C 29.84in /  1010.4hPa Calm     20% 0.00in /  0mm 0.0 W/m2
02:41 53.1 °F /  11.7 °C 11.8 °F /  -11.2 °C 29.84in /  1010.4hPa Calm   1.0mph /  1.6km/h 19% 0.00in /  0mm 0.0 W/m2
02:46 53.1 °F /  11.7 °C 11.8 °F /  -11.2 °C 29.84in /  1010.4hPa Calm     19% 0.00in /  0mm 0.0 W/m2
02:51 53.1 °F /  11.7 °C 11.8 °F /  -11.2 °C 29.84in /  1010.4hPa Calm     19% 0.00in /  0mm 0.0 W/m2
02:56 53.2 °F /  11.8 °C 12.0 °F /  -11.1 °C 29.84in /  1010.4hPa Calm     19% 0.00in /  0mm 0.0 W/m2
03:01 53.2 °F /  11.8 °C 10.8 °F /  -11.8 °C 29.84in /  1010.4hPa Calm   1.0mph /  1.6km/h 18% 0.00in /  0mm 0.0 W/m2
03:06 53.2 °F /  11.8 °C 10.8 °F /  -11.8 °C 29.83in /  1010hPa Calm     18% 0.00in /  0mm 0.0 W/m2
03:11 53.2 °F /  11.8 °C 10.8 °F /  -11.8 °C 29.83in /  1010hPa Calm     18% 0.00in /  0mm 0.0 W/m2
03:17 53.4 °F /  11.9 °C 10.9 °F /  -11.7 °C 29.83in /  1010hPa Calm     18% 0.00in /  0mm 0.0 W/m2
03:22 53.2 °F /  11.8 °C 10.8 °F /  -11.8 °C 29.83in /  1010hPa Calm     18% 0.00in /  0mm 0.0 W/m2
03:27 53.1 °F /  11.7 °C 10.6 °F /  -11.9 °C 29.84in /  1010.4hPa Calm     18% 0.00in /  0mm 0.0 W/m2
03:32 52.9 °F /  11.6 °C 10.6 °F /  -11.9 °C 29.83in /  1010hPa Calm     18% 0.00in /  0mm 0.0 W/m2
03:37 52.7 °F /  11.5 °C 10.4 °F /  -12 °C 29.83in /  1010hPa Calm   2.0mph /  3.2km/h 18% 0.00in /  0mm 0.0 W/m2
03:42 52.7 °F /  11.5 °C 9.1 °F /  -12.7 °C 29.83in /  1010hPa Calm     17% 0.00in /  0mm 0.0 W/m2
03:47 52.5 °F /  11.4 °C 9.0 °F /  -12.8 °C 29.83in /  1010hPa Calm   1.0mph /  1.6km/h 17% 0.00in /  0mm 0.0 W/m2
03:53 52.5 °F /  11.4 °C 9.0 °F /  -12.8 °C 29.83in /  1010hPa Calm     17% 0.00in /  0mm 0.0 W/m2
03:58 52.3 °F /  11.3 °C 8.8 °F /  -12.9 °C 29.83in /  1010hPa Calm   1.0mph /  1.6km/h 17% 0.00in /  0mm 0.0 W/m2
04:03 52.2 °F /  11.2 °C 9.9 °F /  -12.3 °C 29.83in /  1010hPa East 0.9mph /  1.4km/h 2.0mph /  3.2km/h 18% 0.00in /  0mm 0.0 W/m2
04:08 52.0 °F /  11.1 °C 9.7 °F /  -12.4 °C 29.84in /  1010.4hPa Calm     18% 0.00in /  0mm 0.0 W/m2
04:13 51.8 °F /  11 °C 8.4 °F /  -13.1 °C 29.83in /  1010hPa Calm   2.0mph /  3.2km/h 17% 0.00in /  0mm 0.0 W/m2
04:18 51.8 °F /  11 °C 8.4 °F /  -13.1 °C 29.83in /  1010hPa Calm     17% 0.00in /  0mm 0.0 W/m2
04:23 51.6 °F /  10.9 °C 8.2 °F /  -13.2 °C 29.83in /  1010hPa Calm     17% 0.00in /  0mm 0.0 W/m2
04:28 51.8 °F /  11 °C 7.0 °F /  -13.9 °C 29.83in /  1010hPa Calm   1.0mph /  1.6km/h 16% 0.00in /  0mm 0.0 W/m2
04:29 52.0 °F /  11.1 °C 7.2 °F /  -13.8 °C 29.83in /  1010hPa Calm   1.0mph /  1.6km/h 16% 0.00in /  0mm 0.0 W/m2
04:34 52.0 °F /  11.1 °C 7.2 °F /  -13.8 °C 29.83in /  1010hPa Calm     16% 0.00in /  0mm 0.0 W/m2
04:40 52.0 °F /  11.1 °C 7.2 °F /  -13.8 °C 29.83in /  1010hPa Calm   1.0mph /  1.6km/h 16% 0.00in /  0mm 0.0 W/m2
04:45 51.8 °F /  11 °C 7.0 °F /  -13.9 °C 29.83in /  1010hPa Calm     16% 0.00in /  0mm 0.0 W/m2
04:50 51.8 °F /  11 °C 7.0 °F /  -13.9 °C 29.83in /  1010hPa Calm     16% 0.00in /  0mm 0.0 W/m2
04:55 51.6 °F /  10.9 °C 6.8 °F /  -14 °C 29.83in /  1010hPa Calm     16% 0.00in /  0mm 0.0 W/m2
05:00 51.4 °F /  10.8 °C 5.4 °F /  -14.8 °C 29.83in /  1010hPa Calm   1.0mph /  1.6km/h 15% 0.00in /  0mm 0.0 W/m2
05:05 51.4 °F /  10.8 °C 5.4 °F /  -14.8 °C 29.83in /  1010hPa Calm   2.0mph /  3.2km/h 15% 0.00in /  0mm 0.0 W/m2
05:12 51.3 °F /  10.7 °C 3.7 °F /  -15.7 °C 29.83in /  1010hPa NE 0.9mph /  1.4km/h 1.0mph /  1.6km/h 14% 0.00in /  0mm 0.0 W/m2
05:17 51.3 °F /  10.7 °C 3.7 °F /  -15.7 °C 29.83in /  1010hPa Calm   1.0mph /  1.6km/h 14% 0.00in /  0mm 0.0 W/m2
05:23 51.3 °F /  10.7 °C 3.7 °F /  -15.7 °C 29.84in /  1010.4hPa Calm   1.0mph /  1.6km/h 14% 0.00in /  0mm 0.0 W/m2
05:29 51.3 °F /  10.7 °C 3.7 °F /  -15.7 °C 29.84in /  1010.4hPa Calm   2.0mph /  3.2km/h 14% 0.00in /  0mm 0.0 W/m2
05:34 51.1 °F /  10.6 °C 3.6 °F /  -15.8 °C 29.84in /  1010.4hPa Calm     14% 0.00in /  0mm 0.0 W/m2
05:39 51.1 °F /  10.6 °C 3.6 °F /  -15.8 °C 29.84in /  1010.4hPa Calm   1.0mph /  1.6km/h 14% 0.00in /  0mm 0.0 W/m2
05:44 51.1 °F /  10.6 °C 1.9 °F /  -16.7 °C 29.84in /  1010.4hPa Calm   5.0mph /  8km/h 13% 0.00in /  0mm 0.0 W/m2
05:49 50.9 °F /  10.5 °C 1.8 °F /  -16.8 °C 29.85in /  1010.7hPa Calm   3.0mph /  4.8km/h 13% 0.00in /  0mm 0.0 W/m2
05:54 50.9 °F /  10.5 °C 1.8 °F /  -16.8 °C 29.85in /  1010.7hPa East 0.9mph /  1.4km/h 2.0mph /  3.2km/h 13% 0.00in /  0mm 0.0 W/m2
06:00 51.1 °F /  10.6 °C 1.9 °F /  -16.7 °C 29.85in /  1010.7hPa ENE 4.0mph /  6.4km/h 4.0mph /  6.4km/h 13% 0.00in /  0mm 0.0 W/m2
06:05 51.1 °F /  10.6 °C 1.9 °F /  -16.7 °C 29.85in /  1010.7hPa East 0.9mph /  1.4km/h 6.0mph /  9.7km/h 13% 0.00in /  0mm 0.0 W/m2
06:10 51.1 °F /  10.6 °C 1.9 °F /  -16.7 °C 29.85in /  1010.7hPa ENE 2.0mph /  3.2km/h 7.0mph /  11.3km/h 13% 0.00in /  0mm 0.0 W/m2
06:15 51.1 °F /  10.6 °C 0.1 °F /  -17.7 °C 29.85in /  1010.7hPa Calm   3.0mph /  4.8km/h 12% 0.00in /  0mm 0.0 W/m2
06:20 51.1 °F /  10.6 °C 0.1 °F /  -17.7 °C 29.85in /  1010.7hPa Calm   4.0mph /  6.4km/h 12% 0.00in /  0mm 0.0 W/m2
06:25 51.1 °F /  10.6 °C 0.1 °F /  -17.7 °C 29.85in /  1010.7hPa Calm   3.0mph /  4.8km/h 12% 0.00in /  0mm 5.0 W/m2
06:30 51.3 °F /  10.7 °C 0.3 °F /  -17.6 °C 29.85in /  1010.7hPa ENE 2.9mph /  4.7km/h 4.0mph /  6.4km/h 12% 0.00in /  0mm 7.0 W/m2
06:35 51.3 °F /  10.7 °C 0.3 °F /  -17.6 °C 29.85in /  1010.7hPa East 0.9mph /  1.4km/h 2.0mph /  3.2km/h 12% 0.00in /  0mm 9.0 W/m2
06:41 51.3 °F /  10.7 °C 2.1 °F /  -16.6 °C 29.85in /  1010.7hPa Calm   2.0mph /  3.2km/h 13% 0.00in /  0mm 11.0 W/m2
06:46 51.3 °F /  10.7 °C 2.1 °F /  -16.6 °C 29.85in /  1010.7hPa East 0.9mph /  1.4km/h 1.0mph /  1.6km/h 13% 0.00in /  0mm 11.0 W/m2
06:51 51.4 °F /  10.8 °C 2.1 °F /  -16.6 °C 29.85in /  1010.7hPa Calm   2.0mph /  3.2km/h 13% 0.00in /  0mm 12.0 W/m2
06:56 51.6 °F /  10.9 °C 0.7 °F /  -17.4 °C 29.85in /  1010.7hPa Calm   1.0mph /  1.6km/h 12% 0.00in /  0mm 14.0 W/m2
07:01 52.0 °F /  11.1 °C 0.9 °F /  -17.3 °C 29.85in /  1010.7hPa Calm   3.0mph /  4.8km/h 12% 0.00in /  0mm 16.0 W/m2
07:06 52.3 °F /  11.3 °C 1.2 °F /  -17.1 °C 29.85in /  1010.7hPa East 0.9mph /  1.4km/h 4.0mph /  6.4km/h 12% 0.00in /  0mm 16.0 W/m2
07:11 52.9 °F /  11.6 °C 1.6 °F /  -16.9 °C 29.85in /  1010.7hPa Calm   2.0mph /  3.2km/h 12% 0.00in /  0mm 18.0 W/m2
07:16 53.1 °F /  11.7 °C 1.8 °F /  -16.8 °C 29.85in /  1010.7hPa Calm   4.0mph /  6.4km/h 12% 0.00in /  0mm 19.0 W/m2
07:21 53.8 °F /  12.1 °C 4.1 °F /  -15.5 °C 29.85in /  1010.7hPa Calm   3.0mph /  4.8km/h 13% 0.00in /  0mm 19.0 W/m2
07:26 54.0 °F /  12.2 °C 2.5 °F /  -16.4 °C 29.85in /  1010.7hPa Calm   1.0mph /  1.6km/h 12% 0.00in /  0mm 21.0 W/m2
07:32 54.3 °F /  12.4 °C 4.5 °F /  -15.3 °C 29.85in /  1010.7hPa NE 0.9mph /  1.4km/h 2.0mph /  3.2km/h 13% 0.00in /  0mm 23.0 W/m2
07:38 54.9 °F /  12.7 °C 6.6 °F /  -14.1 °C 29.85in /  1010.7hPa Calm   1.0mph /  1.6km/h 14% 0.00in /  0mm 30.0 W/m2
07:43 55.2 °F /  12.9 °C 5.2 °F /  -14.9 °C 29.85in /  1010.7hPa Calm   2.0mph /  3.2km/h 13% 0.00in /  0mm 39.0 W/m2
07:48 55.9 °F /  13.3 °C 5.7 °F /  -14.6 °C 29.85in /  1010.7hPa Calm   1.0mph /  1.6km/h 13% 0.00in /  0mm 30.0 W/m2
07:53 56.7 °F /  13.7 °C 6.3 °F /  -14.3 °C 29.85in /  1010.7hPa Calm   2.0mph /  3.2km/h 13% 0.00in /  0mm 30.0 W/m2
07:58 57.7 °F /  14.3 °C 5.4 °F /  -14.8 °C 29.85in /  1010.7hPa Calm     12% 0.00in /  0mm 33.0 W/m2
08:03 58.8 °F /  14.9 °C 6.3 °F /  -14.3 °C 29.85in /  1010.7hPa Calm   1.0mph /  1.6km/h 12% 0.00in /  0mm 33.0 W/m2
08:08 60.3 °F /  15.7 °C 5.5 °F /  -14.7 °C 29.84in /  1010.4hPa Calm   1.0mph /  1.6km/h 11% 0.00in /  0mm 26.0 W/m2
08:13 62.1 °F /  16.7 °C 0.0 °F /  -17.8 °C 29.84in /  1010.4hPa Calm   1.0mph /  1.6km/h 8% 0.00in /  0mm 28.0 W/m2
08:19 63.5 °F /  17.5 °C 1.0 °F /  -17.2 °C 29.85in /  1010.7hPa Calm   1.0mph /  1.6km/h 8% 0.00in /  0mm 30.0 W/m2
08:25 64.9 °F /  18.3 °C -0.8 °F /  -18.2 °C 29.84in /  1010.4hPa Calm   1.0mph /  1.6km/h 7% 0.00in /  0mm 105.0 W/m2
08:30 66.4 °F /  19.1 °C 0.3 °F /  -17.6 °C 29.85in /  1010.7hPa Calm   1.0mph /  1.6km/h 7% 0.00in /  0mm 508.0 W/m2
08:35 67.3 °F /  19.6 °C -2.2 °F /  -19 °C 29.85in /  1010.7hPa Calm   2.0mph /  3.2km/h 6% 0.00in /  0mm 527.0 W/m2
08:41 68.4 °F /  20.2 °C -1.5 °F /  -18.6 °C 29.85in /  1010.7hPa Calm     6% 0.00in /  0mm 550.0 W/m2
08:46 69.3 °F /  20.7 °C -0.8 °F /  -18.2 °C 29.85in /  1010.7hPa Calm     6% 0.00in /  0mm 570.0 W/m2
08:51 70.2 °F /  21.2 °C -4.0 °F /  -20 °C 29.85in /  1010.7hPa Calm   1.0mph /  1.6km/h 5% 0.00in /  0mm 591.0 W/m2
08:56 71.4 °F /  21.9 °C -3.1 °F /  -19.5 °C 29.85in /  1010.7hPa Calm   1.0mph /  1.6km/h 5% 0.00in /  0mm 610.0 W/m2
09:02 72.9 °F /  22.7 °C -6.7 °F /  -21.5 °C 29.85in /  1010.7hPa NNW 2.0mph /  3.2km/h 4.0mph /  6.4km/h 4% 0.00in /  0mm 629.0 W/m2
09:07 74.5 °F /  23.6 °C -11.4 °F /  -24.1 °C 29.84in /  1010.4hPa Calm   1.0mph /  1.6km/h 3% 0.00in /  0mm 645.0 W/m2
09:12 75.6 °F /  24.2 °C -18.8 °F /  -28.2 °C 29.84in /  1010.4hPa Calm   2.0mph /  3.2km/h 2% 0.00in /  0mm 659.0 W/m2
09:17 76.6 °F /  24.8 °C -9.9 °F /  -23.3 °C 29.84in /  1010.4hPa WNW 0.9mph /  1.4km/h 2.0mph /  3.2km/h 3% 0.00in /  0mm 679.0 W/m2
09:22 77.5 °F /  25.3 °C -17.5 °F /  -27.5 °C 29.85in /  1010.7hPa Calm   2.0mph /  3.2km/h 2% 0.00in /  0mm 691.0 W/m2
09:27 77.7 °F /  25.4 °C -9.2 °F /  -22.9 °C 29.84in /  1010.4hPa WNW 2.9mph /  4.7km/h 6.0mph /  9.7km/h 3% 0.00in /  0mm 708.0 W/m2
09:32 78.3 °F /  25.7 °C -8.9 °F /  -22.7 °C 29.84in /  1010.4hPa Calm   3.0mph /  4.8km/h 3% 0.00in /  0mm 726.0 W/m2
09:37 78.1 °F /  25.6 °C -9.0 °F /  -22.8 °C 29.84in /  1010.4hPa Calm   3.0mph /  4.8km/h 3% 0.00in /  0mm 737.0 W/m2
09:42 78.3 °F /  25.7 °C -8.9 °F /  -22.7 °C 29.84in /  1010.4hPa NNW 0.9mph /  1.4km/h 1.0mph /  1.6km/h 3% 0.00in /  0mm 751.0 W/m2
09:47 78.6 °F /  25.9 °C -16.8 °F /  -27.1 °C 29.84in /  1010.4hPa West 2.0mph /  3.2km/h 2.0mph /  3.2km/h 2% 0.00in /  0mm 768.0 W/m2
09:53 79.2 °F /  26.2 °C -16.4 °F /  -26.9 °C 29.84in /  1010.4hPa West 2.0mph /  3.2km/h 5.0mph /  8km/h 2% 0.00in /  0mm 784.0 W/m2
09:58 79.9 °F /  26.6 °C -15.9 °F /  -26.6 °C 29.84in /  1010.4hPa North 2.9mph /  4.7km/h 5.0mph /  8km/h 2% 0.00in /  0mm 798.0 W/m2
10:03 80.4 °F /  26.9 °C -7.4 °F /  -21.9 °C 29.84in /  1010.4hPa North 4.0mph /  6.4km/h 4.0mph /  6.4km/h 3% 0.00in /  0mm 812.0 W/m2
10:08 81.0 °F /  27.2 °C -15.3 °F /  -26.3 °C 29.83in /  1010hPa NNW 4.9mph /  7.9km/h 6.0mph /  9.7km/h 2% 0.00in /  0mm 828.0 W/m2
10:13 81.7 °F /  27.6 °C -14.8 °F /  -26 °C 29.84in /  1010.4hPa WNW 2.9mph /  4.7km/h 7.0mph /  11.3km/h 2% 0.00in /  0mm 837.0 W/m2
10:18 82.0 °F /  27.8 °C -6.3 °F /  -21.3 °C 29.83in /  1010hPa NW 0.9mph /  1.4km/h 3.0mph /  4.8km/h 3% 0.00in /  0mm 854.0 W/m2
10:23 82.4 °F /  28 °C -14.3 °F /  -25.7 °C 29.84in /  1010.4hPa Calm   6.0mph /  9.7km/h 2% 0.00in /  0mm 865.0 W/m2
10:28 82.8 °F /  28.2 °C -14.1 °F /  -25.6 °C 29.83in /  1010hPa Calm   2.0mph /  3.2km/h 2% 0.00in /  0mm 879.0 W/m2
10:33 83.1 °F /  28.4 °C -13.9 °F /  -25.5 °C 29.83in /  1010hPa NNW 2.0mph /  3.2km/h 7.0mph /  11.3km/h 2% 0.00in /  0mm 891.0 W/m2
10:39 83.5 °F /  28.6 °C -13.7 °F /  -25.4 °C 29.83in /  1010hPa NW 9.0mph /  14.5km/h 9.0mph /  14.5km/h 2% 0.00in /  0mm 900.0 W/m2
10:44 83.7 °F /  28.7 °C -26.9 °F /  -32.7 °C 29.83in /  1010hPa Calm   10.0mph /  16.1km/h 1% 0.00in /  0mm 909.0 W/m2
10:49 83.8 °F /  28.8 °C -13.4 °F /  -25.2 °C 29.83in /  1010hPa NNW 2.0mph /  3.2km/h 5.0mph /  8km/h 2% 0.00in /  0mm 918.0 W/m2
10:55 84.4 °F /  29.1 °C -13.0 °F /  -25 °C 29.83in /  1010hPa Calm   3.0mph /  4.8km/h 2% 0.00in /  0mm 926.0 W/m2
11:00 84.9 °F /  29.4 °C -12.6 °F /  -24.8 °C 29.83in /  1010hPa WNW 2.0mph /  3.2km/h 8.0mph /  12.9km/h 2% 0.00in /  0mm 942.0 W/m2
11:05 85.3 °F /  29.6 °C -12.5 °F /  -24.7 °C 29.83in /  1010hPa WNW 2.0mph /  3.2km/h 7.0mph /  11.3km/h 2% 0.00in /  0mm 949.0 W/m2
11:10 85.5 °F /  29.7 °C -12.5 °F /  -24.7 °C 29.83in /  1010hPa Calm   7.0mph /  11.3km/h 2% 0.00in /  0mm 956.0 W/m2
11:15 85.6 °F /  29.8 °C -4.0 °F /  -20 °C 29.82in /  1009.7hPa NW 0.9mph /  1.4km/h 7.0mph /  11.3km/h 3% 0.00in /  0mm 967.0 W/m2
11:20 86.0 °F /  30 °C -3.8 °F /  -19.9 °C 29.82in /  1009.7hPa Calm   10.0mph /  16.1km/h 3% 0.00in /  0mm 972.0 W/m2
11:26 86.2 °F /  30.1 °C -3.6 °F /  -19.8 °C 29.82in /  1009.7hPa WNW 4.0mph /  6.4km/h 8.0mph /  12.9km/h 3% 0.00in /  0mm 981.0 W/m2
11:31 86.2 °F /  30.1 °C -3.6 °F /  -19.8 °C 29.82in /  1009.7hPa WSW 2.0mph /  3.2km/h 7.0mph /  11.3km/h 3% 0.00in /  0mm 984.0 W/m2
11:36 86.4 °F /  30.2 °C -3.5 °F /  -19.7 °C 29.82in /  1009.7hPa NNW 4.0mph /  6.4km/h 5.0mph /  8km/h 3% 0.00in /  0mm 993.0 W/m2
11:41 86.7 °F /  30.4 °C 2.8 °F /  -16.2 °C 29.82in /  1009.7hPa NNW 4.9mph /  7.9km/h 11.0mph /  17.7km/h 4% 0.00in /  0mm 993.0 W/m2
11:46 86.9 °F /  30.5 °C -3.1 °F /  -19.5 °C 29.82in /  1009.7hPa NNE 4.9mph /  7.9km/h 11.0mph /  17.7km/h 3% 0.00in /  0mm 998.0 W/m2
11:51 87.3 °F /  30.7 °C 3.2 °F /  -16 °C 29.82in /  1009.7hPa WNW 2.9mph /  4.7km/h 7.0mph /  11.3km/h 4% 0.00in /  0mm 1002.0 W/m2
11:56 87.8 °F /  31 °C 8.4 °F /  -13.1 °C 29.81in /  1009.4hPa Calm   11.0mph /  17.7km/h 5% 0.00in /  0mm 1007.0 W/m2
12:01 87.6 °F /  30.9 °C 12.4 °F /  -10.9 °C 29.82in /  1009.7hPa West 4.0mph /  6.4km/h 10.0mph /  16.1km/h 6% 0.00in /  0mm 1011.0 W/m2
12:06 87.6 °F /  30.9 °C 16.0 °F /  -8.9 °C 29.81in /  1009.4hPa WNW 4.9mph /  7.9km/h 11.0mph /  17.7km/h 7% 0.00in /  0mm 1009.0 W/m2
12:12 87.6 °F /  30.9 °C 19.0 °F /  -7.2 °C 29.81in /  1009.4hPa WNW 14.1mph /  22.7km/h 16.0mph /  25.7km/h 8% 0.00in /  0mm 1018.0 W/m2
12:17 87.4 °F /  30.8 °C 15.8 °F /  -9 °C 29.81in /  1009.4hPa NW 4.9mph /  7.9km/h 11.0mph /  17.7km/h 7% 0.00in /  0mm 1020.0 W/m2
12:22 87.6 °F /  30.9 °C 16.0 °F /  -8.9 °C 29.80in /  1009hPa WNW 4.0mph /  6.4km/h 9.0mph /  14.5km/h 7% 0.00in /  0mm 1018.0 W/m2
12:27 87.6 °F /  30.9 °C 16.0 °F /  -8.9 °C 29.80in /  1009hPa NW 8.9mph /  14.3km/h 14.0mph /  22.5km/h 7% 0.00in /  0mm 1016.0 W/m2
12:32 87.6 °F /  30.9 °C 19.0 °F /  -7.2 °C 29.81in /  1009.4hPa WNW 4.0mph /  6.4km/h 16.0mph /  25.7km/h 8% 0.00in /  0mm 1023.0 W/m2
12:37 87.4 °F /  30.8 °C 18.9 °F /  -7.3 °C 29.80in /  1009hPa NW 12.1mph /  19.5km/h 12.1mph /  19.5km/h 8% 0.00in /  0mm 1030.0 W/m2
12:42 87.4 °F /  30.8 °C 18.9 °F /  -7.3 °C 29.80in /  1009hPa WNW 2.0mph /  3.2km/h 13.0mph /  20.9km/h 8% 0.00in /  0mm 1016.0 W/m2
12:47 87.6 °F /  30.9 °C 19.0 °F /  -7.2 °C 29.80in /  1009hPa WSW 6.9mph /  11.1km/h 15.0mph /  24.1km/h 8% 0.00in /  0mm 1021.0 W/m2
12:52 87.6 °F /  30.9 °C 16.0 °F /  -8.9 °C 29.80in /  1009hPa WSW 4.0mph /  6.4km/h 10.0mph /  16.1km/h 7% 0.00in /  0mm 1027.0 W/m2
12:58 88.2 °F /  31.2 °C 19.4 °F /  -7 °C 29.80in /  1009hPa NW 2.9mph /  4.7km/h 15.0mph /  24.1km/h 8% 0.00in /  0mm 1009.0 W/m2
13:03 88.2 °F /  31.2 °C 19.4 °F /  -7 °C 29.79in /  1008.7hPa WNW 0.9mph /  1.4km/h 17.0mph /  27.4km/h 8% 0.00in /  0mm 1007.0 W/m2
13:08 87.8 °F /  31 °C 19.2 °F /  -7.1 °C 29.80in /  1009hPa NW 0.9mph /  1.4km/h 11.0mph /  17.7km/h 8% 0.00in /  0mm 1000.0 W/m2
13:13 88.2 °F /  31.2 °C 16.3 °F /  -8.7 °C 29.80in /  1009hPa NNW 8.1mph /  13km/h 16.0mph /  25.7km/h 7% 0.00in /  0mm 1007.0 W/m2
13:18 88.2 °F /  31.2 °C 8.8 °F /  -12.9 °C 29.79in /  1008.7hPa North 12.1mph /  19.5km/h 13.0mph /  20.9km/h 5% 0.00in /  0mm 998.0 W/m2
13:23 88.5 °F /  31.4 °C 16.7 °F /  -8.5 °C 29.79in /  1008.7hPa NNW 2.9mph /  4.7km/h 17.0mph /  27.4km/h 7% 0.00in /  0mm 998.0 W/m2
13:28 88.7 °F /  31.5 °C 16.7 °F /  -8.5 °C 29.79in /  1008.7hPa Calm   14.0mph /  22.5km/h 7% 0.00in /  0mm 984.0 W/m2
13:33 89.1 °F /  31.7 °C 17.1 °F /  -8.3 °C 29.78in /  1008.4hPa Calm   8.0mph /  12.9km/h 7% 0.00in /  0mm 977.0 W/m2
13:38 89.4 °F /  31.9 °C 13.8 °F /  -10.1 °C 29.78in /  1008.4hPa WNW 2.0mph /  3.2km/h 7.0mph /  11.3km/h 6% 0.00in /  0mm 970.0 W/m2
13:44 89.8 °F /  32.1 °C 14.0 °F /  -10 °C 29.78in /  1008.4hPa NW 4.0mph /  6.4km/h 10.0mph /  16.1km/h 6% 0.00in /  0mm 965.0 W/m2
13:49 89.8 °F /  32.1 °C 17.6 °F /  -8 °C 29.78in /  1008.4hPa North 2.9mph /  4.7km/h 17.0mph /  27.4km/h 7% 0.00in /  0mm 953.0 W/m2
13:54 89.8 °F /  32.1 °C 14.0 °F /  -10 °C 29.78in /  1008.4hPa West 2.0mph /  3.2km/h 12.0mph /  19.3km/h 6% 0.00in /  0mm 949.0 W/m2
13:59 90.0 °F /  32.2 °C 14.2 °F /  -9.9 °C 29.78in /  1008.4hPa NW 4.0mph /  6.4km/h 10.0mph /  16.1km/h 6% 0.00in /  0mm 947.0 W/m2
14:04 90.1 °F /  32.3 °C 14.2 °F /  -9.9 °C 29.77in /  1008hPa WNW 4.0mph /  6.4km/h 6.0mph /  9.7km/h 6% 0.00in /  0mm 935.0 W/m2
14:09 89.8 °F /  32.1 °C 14.0 °F /  -10 °C 29.77in /  1008hPa WNW 2.9mph /  4.7km/h 14.0mph /  22.5km/h 6% 0.00in /  0mm 926.0 W/m2
14:14 89.6 °F /  32 °C 13.8 °F /  -10.1 °C 29.77in /  1008hPa NW 0.9mph /  1.4km/h 12.0mph /  19.3km/h 6% 0.00in /  0mm 916.0 W/m2
14:21 90.0 °F /  32.2 °C 14.2 °F /  -9.9 °C 29.77in /  1008hPa WNW 2.0mph /  3.2km/h 17.0mph /  27.4km/h 6% 0.00in /  0mm 898.0 W/m2
14:27 90.0 °F /  32.2 °C 17.6 °F /  -8 °C 29.77in /  1008hPa WSW 4.0mph /  6.4km/h 6.0mph /  9.7km/h 7% 0.00in /  0mm 889.0 W/m2
14:32 90.1 °F /  32.3 °C 10.2 °F /  -12.1 °C 29.77in /  1008hPa ESE 6.9mph /  11.1km/h 12.0mph /  19.3km/h 5% 0.00in /  0mm 881.0 W/m2
14:37 90.0 °F /  32.2 °C 14.2 °F /  -9.9 °C 29.76in /  1007.7hPa NW 8.9mph /  14.3km/h 9.0mph /  14.5km/h 6% 0.00in /  0mm 865.0 W/m2
14:42 90.1 °F /  32.3 °C 14.2 °F /  -9.9 °C 29.76in /  1007.7hPa WNW 8.1mph /  13km/h 11.0mph /  17.7km/h 6% 0.00in /  0mm 854.0 W/m2
14:47 90.5 °F /  32.5 °C 18.1 °F /  -7.7 °C 29.76in /  1007.7hPa WNW 2.0mph /  3.2km/h 11.0mph /  17.7km/h 7% 0.00in /  0mm 838.0 W/m2
14:52 90.7 °F /  32.6 °C 14.7 °F /  -9.6 °C 29.76in /  1007.7hPa West 8.9mph /  14.3km/h 12.0mph /  19.3km/h 6% 0.00in /  0mm 833.0 W/m2
14:57 90.3 °F /  32.4 °C 10.2 °F /  -12.1 °C 29.75in /  1007.3hPa NNW 2.0mph /  3.2km/h 8.0mph /  12.9km/h 5% 0.00in /  0mm 817.0 W/m2
15:02 90.1 °F /  32.3 °C 14.2 °F /  -9.9 °C 29.76in /  1007.7hPa West 10.1mph /  16.3km/h 13.0mph /  20.9km/h 6% 0.00in /  0mm 809.0 W/m2
15:07 89.8 °F /  32.1 °C 17.6 °F /  -8 °C 29.75in /  1007.3hPa WSW 8.1mph /  13km/h 9.0mph /  14.5km/h 7% 0.00in /  0mm 786.0 W/m2
15:13 89.6 °F /  32 °C 20.5 °F /  -6.4 °C 29.75in /  1007.3hPa West 2.0mph /  3.2km/h 11.0mph /  17.7km/h 8% 0.00in /  0mm 772.0 W/m2
15:18 90.1 °F /  32.3 °C 17.8 °F /  -7.9 °C 29.75in /  1007.3hPa West 2.0mph /  3.2km/h 13.0mph /  20.9km/h 7% 0.00in /  0mm 766.0 W/m2
15:23 90.5 °F /  32.5 °C 14.5 °F /  -9.7 °C 29.75in /  1007.3hPa West 4.9mph /  7.9km/h 6.0mph /  9.7km/h 6% 0.00in /  0mm 742.0 W/m2
15:28 90.5 °F /  32.5 °C 18.1 °F /  -7.7 °C 29.75in /  1007.3hPa WNW 4.0mph /  6.4km/h 9.0mph /  14.5km/h 7% 0.00in /  0mm 729.0 W/m2
15:33 90.5 °F /  32.5 °C 10.4 °F /  -12 °C 29.75in /  1007.3hPa WNW 10.1mph /  16.3km/h 10.1mph /  16.3km/h 5% 0.00in /  0mm 722.0 W/m2
15:38 90.7 °F /  32.6 °C 18.1 °F /  -7.7 °C 29.75in /  1007.3hPa WNW 2.0mph /  3.2km/h 5.0mph /  8km/h 7% 0.00in /  0mm 694.0 W/m2
15:43 90.3 °F /  32.4 °C 18.0 °F /  -7.8 °C 29.74in /  1007hPa Calm   5.0mph /  8km/h 7% 0.00in /  0mm 682.0 W/m2
15:48 90.0 °F /  32.2 °C 14.2 °F /  -9.9 °C 29.74in /  1007hPa WNW 4.9mph /  7.9km/h 11.0mph /  17.7km/h 6% 0.00in /  0mm 663.0 W/m2
15:53 89.8 °F /  32.1 °C 17.6 °F /  -8 °C 29.74in /  1007hPa NNW 2.0mph /  3.2km/h 8.0mph /  12.9km/h 7% 0.00in /  0mm 645.0 W/m2
15:58 89.8 °F /  32.1 °C 17.6 °F /  -8 °C 29.74in /  1007hPa WNW 4.0mph /  6.4km/h 15.0mph /  24.1km/h 7% 0.00in /  0mm 626.0 W/m2
16:04 89.4 °F /  31.9 °C 17.2 °F /  -8.2 °C 29.73in /  1006.7hPa West 2.0mph /  3.2km/h 7.0mph /  11.3km/h 7% 0.00in /  0mm 613.0 W/m2
16:09 90.0 °F /  32.2 °C 17.6 °F /  -8 °C 29.74in /  1007hPa NW 2.0mph /  3.2km/h 5.0mph /  8km/h 7% 0.00in /  0mm 596.0 W/m2
16:14 89.8 °F /  32.1 °C 17.6 °F /  -8 °C 29.74in /  1007hPa SSW 6.0mph /  9.7km/h 18.0mph /  29km/h 7% 0.00in /  0mm 578.0 W/m2
16:19 89.2 °F /  31.8 °C 17.1 °F /  -8.3 °C 29.74in /  1007hPa Calm   8.0mph /  12.9km/h 7% 0.00in /  0mm 555.0 W/m2
16:24 89.4 °F /  31.9 °C 17.2 °F /  -8.2 °C 29.74in /  1007hPa NNW 2.9mph /  4.7km/h 15.0mph /  24.1km/h 7% 0.00in /  0mm 541.0 W/m2
16:29 90.0 °F /  32.2 °C 14.2 °F /  -9.9 °C 29.74in /  1007hPa West 15.0mph /  24.1km/h 15.0mph /  24.1km/h 6% 0.00in /  0mm 524.0 W/m2
16:34 89.4 °F /  31.9 °C 17.2 °F /  -8.2 °C 29.74in /  1007hPa WNW 2.0mph /  3.2km/h 8.0mph /  12.9km/h 7% 0.00in /  0mm 504.0 W/m2
16:40 89.4 °F /  31.9 °C 13.8 °F /  -10.1 °C 29.74in /  1007hPa West 8.9mph /  14.3km/h 9.0mph /  14.5km/h 6% 0.00in /  0mm 487.0 W/m2
16:45 88.5 °F /  31.4 °C 16.7 °F /  -8.5 °C 29.74in /  1007hPa West 6.0mph /  9.7km/h 18.0mph /  29km/h 7% 0.00in /  0mm 459.0 W/m2
16:51 88.3 °F /  31.3 °C 19.6 °F /  -6.9 °C 29.74in /  1007hPa WNW 4.9mph /  7.9km/h 8.0mph /  12.9km/h 8% 0.00in /  0mm 441.0 W/m2
16:56 88.3 °F /  31.3 °C 19.6 °F /  -6.9 °C 29.74in /  1007hPa SW 0.9mph /  1.4km/h 10.0mph /  16.1km/h 8% 0.00in /  0mm 422.0 W/m2
17:01 88.5 °F /  31.4 °C 19.8 °F /  -6.8 °C 29.74in /  1007hPa West 2.9mph /  4.7km/h 12.0mph /  19.3km/h 8% 0.00in /  0mm 397.0 W/m2
17:07 88.3 °F /  31.3 °C 16.5 °F /  -8.6 °C 29.75in /  1007.3hPa Calm   10.0mph /  16.1km/h 7% 0.00in /  0mm 376.0 W/m2
17:12 88.5 °F /  31.4 °C 16.7 °F /  -8.5 °C 29.75in /  1007.3hPa NNW 2.0mph /  3.2km/h 8.0mph /  12.9km/h 7% 0.00in /  0mm 352.0 W/m2
17:17 88.9 °F /  31.6 °C 16.9 °F /  -8.4 °C 29.75in /  1007.3hPa Calm   5.0mph /  8km/h 7% 0.00in /  0mm 330.0 W/m2
17:23 89.1 °F /  31.7 °C 17.1 °F /  -8.3 °C 29.75in /  1007.3hPa West 2.0mph /  3.2km/h 3.0mph /  4.8km/h 7% 0.00in /  0mm 304.0 W/m2
17:28 89.1 °F /  31.7 °C 20.1 °F /  -6.6 °C 29.75in /  1007.3hPa West 2.9mph /  4.7km/h 10.0mph /  16.1km/h 8% 0.00in /  0mm 290.0 W/m2
17:33 88.7 °F /  31.5 °C 19.9 °F /  -6.7 °C 29.75in /  1007.3hPa NW 2.0mph /  3.2km/h 7.0mph /  11.3km/h 8% 0.00in /  0mm 267.0 W/m2
17:38 88.0 °F /  31.1 °C 19.4 °F /  -7 °C 29.76in /  1007.7hPa WNW 4.0mph /  6.4km/h 13.0mph /  20.9km/h 8% 0.00in /  0mm 250.0 W/m2
17:44 87.6 °F /  30.9 °C 21.7 °F /  -5.7 °C 29.76in /  1007.7hPa Calm   10.0mph /  16.1km/h 9% 0.00in /  0mm 229.0 W/m2
17:49 87.3 °F /  30.7 °C 18.9 °F /  -7.3 °C 29.76in /  1007.7hPa SW 4.9mph /  7.9km/h 10.0mph /  16.1km/h 8% 0.00in /  0mm 207.0 W/m2
17:55 86.5 °F /  30.3 °C 21.0 °F /  -6.1 °C 29.76in /  1007.7hPa NW 6.9mph /  11.1km/h 10.0mph /  16.1km/h 9% 0.00in /  0mm 185.0 W/m2
18:00 86.2 °F /  30.1 °C 18.0 °F /  -7.8 °C 29.76in /  1007.7hPa West 2.9mph /  4.7km/h 7.0mph /  11.3km/h 8% 0.00in /  0mm 163.0 W/m2
18:05 85.8 °F /  29.9 °C 20.5 °F /  -6.4 °C 29.77in /  1008hPa WSW 2.9mph /  4.7km/h 7.0mph /  11.3km/h 9% 0.00in /  0mm 135.0 W/m2
18:11 85.5 °F /  29.7 °C 20.1 °F /  -6.6 °C 29.77in /  1008hPa West 4.9mph /  7.9km/h 5.0mph /  8km/h 9% 0.00in /  0mm 47.0 W/m2
18:16 84.7 °F /  29.3 °C 19.6 °F /  -6.9 °C 29.77in /  1008hPa Calm   9.0mph /  14.5km/h 9% 0.00in /  0mm 90.0 W/m2
18:21 84.6 °F /  29.2 °C 19.6 °F /  -6.9 °C 29.77in /  1008hPa West 0.9mph /  1.4km/h 7.0mph /  11.3km/h 9% 0.00in /  0mm 74.0 W/m2
18:26 84.6 °F /  29.2 °C 21.9 °F /  -5.6 °C 29.78in /  1008.4hPa WNW 4.9mph /  7.9km/h 9.0mph /  14.5km/h 10% 0.00in /  0mm 54.0 W/m2
18:31 84.0 °F /  28.9 °C 21.6 °F /  -5.8 °C 29.78in /  1008.4hPa West 2.0mph /  3.2km/h 10.0mph /  16.1km/h 10% 0.00in /  0mm 33.0 W/m2
18:37 83.1 °F /  28.4 °C 20.8 °F /  -6.2 °C 29.78in /  1008.4hPa WSW 4.9mph /  7.9km/h 9.0mph /  14.5km/h 10% 0.00in /  0mm 19.0 W/m2
18:42 82.0 °F /  27.8 °C 22.3 °F /  -5.4 °C 29.78in /  1008.4hPa WSW 4.9mph /  7.9km/h 10.0mph /  16.1km/h 11% 0.00in /  0mm 14.0 W/m2
18:47 81.3 °F /  27.4 °C 21.7 °F /  -5.7 °C 29.79in /  1008.7hPa WNW 2.0mph /  3.2km/h 7.0mph /  11.3km/h 11% 0.00in /  0mm 11.0 W/m2
18:53 80.8 °F /  27.1 °C 23.4 °F /  -4.8 °C 29.79in /  1008.7hPa Calm   8.0mph /  12.9km/h 12% 0.00in /  0mm 5.0 W/m2
18:58 80.2 °F /  26.8 °C 23.0 °F /  -5 °C 29.79in /  1008.7hPa West 0.9mph /  1.4km/h 9.0mph /  14.5km/h 12% 0.00in /  0mm 0.0 W/m2
19:03 79.9 °F /  26.6 °C 22.8 °F /  -5.1 °C 29.80in /  1009hPa WSW 2.0mph /  3.2km/h 7.0mph /  11.3km/h 12% 0.00in /  0mm 0.0 W/m2
19:09 79.3 °F /  26.3 °C 24.3 °F /  -4.3 °C 29.80in /  1009hPa West 2.9mph /  4.7km/h 10.0mph /  16.1km/h 13% 0.00in /  0mm 0.0 W/m2
19:14 79.2 °F /  26.2 °C 24.1 °F /  -4.4 °C 29.80in /  1009hPa WNW 4.9mph /  7.9km/h 9.0mph /  14.5km/h 13% 0.00in /  0mm 0.0 W/m2
19:19 79.0 °F /  26.1 °C 23.9 °F /  -4.5 °C 29.80in /  1009hPa West 2.9mph /  4.7km/h 9.0mph /  14.5km/h 13% 0.00in /  0mm 0.0 W/m2
19:24 78.6 °F /  25.9 °C 23.7 °F /  -4.6 °C 29.80in /  1009hPa West 0.9mph /  1.4km/h 2.0mph /  3.2km/h 13% 0.00in /  0mm 0.0 W/m2
19:29 78.4 °F /  25.8 °C 25.3 °F /  -3.7 °C 29.81in /  1009.4hPa Calm   8.0mph /  12.9km/h 14% 0.00in /  0mm 0.0 W/m2
19:34 78.1 °F /  25.6 °C 25.0 °F /  -3.9 °C 29.81in /  1009.4hPa West 2.0mph /  3.2km/h 9.0mph /  14.5km/h 14% 0.00in /  0mm 0.0 W/m2
19:39 77.9 °F /  25.5 °C 24.8 °F /  -4 °C 29.81in /  1009.4hPa West 2.9mph /  4.7km/h 7.0mph /  11.3km/h 14% 0.00in /  0mm 0.0 W/m2
19:44 77.7 °F /  25.4 °C 24.8 °F /  -4 °C 29.81in /  1009.4hPa West 2.0mph /  3.2km/h 7.0mph /  11.3km/h 14% 0.00in /  0mm 0.0 W/m2
19:49 77.5 °F /  25.3 °C 24.6 °F /  -4.1 °C 29.81in /  1009.4hPa Calm   10.0mph /  16.1km/h 14% 0.00in /  0mm 0.0 W/m2
19:54 77.4 °F /  25.2 °C 24.4 °F /  -4.2 °C 29.82in /  1009.7hPa Calm   3.0mph /  4.8km/h 14% 0.00in /  0mm 0.0 W/m2
19:59 77.2 °F /  25.1 °C 24.3 °F /  -4.3 °C 29.82in /  1009.7hPa West 2.0mph /  3.2km/h 6.0mph /  9.7km/h 14% 0.00in /  0mm 0.0 W/m2
20:04 77.2 °F /  25.1 °C 25.9 °F /  -3.4 °C 29.82in /  1009.7hPa WNW 0.9mph /  1.4km/h 3.0mph /  4.8km/h 15% 0.00in /  0mm 0.0 W/m2
20:09 76.8 °F /  24.9 °C 25.7 °F /  -3.5 °C 29.82in /  1009.7hPa Calm   6.0mph /  9.7km/h 15% 0.00in /  0mm 0.0 W/m2
20:15 76.6 °F /  24.8 °C 25.5 °F /  -3.6 °C 29.83in /  1010hPa Calm   2.0mph /  3.2km/h 15% 0.00in /  0mm 0.0 W/m2
20:20 76.5 °F /  24.7 °C 27.0 °F /  -2.8 °C 29.83in /  1010hPa West 2.9mph /  4.7km/h 3.0mph /  4.8km/h 16% 0.00in /  0mm 0.0 W/m2
20:25 76.3 °F /  24.6 °C 26.8 °F /  -2.9 °C 29.83in /  1010hPa Calm     16% 0.00in /  0mm 0.0 W/m2
20:31 75.9 °F /  24.4 °C 26.4 °F /  -3.1 °C 29.83in /  1010hPa Calm     16% 0.00in /  0mm 0.0 W/m2
20:36 75.7 °F /  24.3 °C 26.4 °F /  -3.1 °C 29.83in /  1010hPa Calm     16% 0.00in /  0mm 0.0 W/m2
20:41 75.6 °F /  24.2 °C 27.7 °F /  -2.4 °C 29.83in /  1010hPa Calm     17% 0.00in /  0mm 0.0 W/m2
20:47 75.0 °F /  23.9 °C 25.7 °F /  -3.5 °C 29.84in /  1010.4hPa Calm     16% 0.00in /  0mm 0.0 W/m2
20:52 74.7 °F /  23.7 °C 27.0 °F /  -2.8 °C 29.84in /  1010.4hPa Calm     17% 0.00in /  0mm 0.0 W/m2
20:57 74.3 °F /  23.5 °C 28.0 °F /  -2.2 °C 29.84in /  1010.4hPa Calm     18% 0.00in /  0mm 0.0 W/m2
21:03 73.8 °F /  23.2 °C 27.7 °F /  -2.4 °C 29.84in /  1010.4hPa Calm     18% 0.00in /  0mm 0.0 W/m2
21:08 73.4 °F /  23 °C 27.3 °F /  -2.6 °C 29.85in /  1010.7hPa Calm     18% 0.00in /  0mm 0.0 W/m2
21:13 73.0 °F /  22.8 °C 28.4 °F /  -2 °C 29.85in /  1010.7hPa Calm     19% 0.00in /  0mm 0.0 W/m2
21:19 72.5 °F /  22.5 °C 27.9 °F /  -2.3 °C 29.85in /  1010.7hPa Calm     19% 0.00in /  0mm 0.0 W/m2
21:24 72.1 °F /  22.3 °C 28.8 °F /  -1.8 °C 29.85in /  1010.7hPa Calm     20% 0.00in /  0mm 0.0 W/m2
21:29 71.8 °F /  22.1 °C 28.6 °F /  -1.9 °C 29.85in /  1010.7hPa Calm     20% 0.00in /  0mm 0.0 W/m2
21:32 71.4 °F /  21.9 °C 28.2 °F /  -2.1 °C 29.85in /  1010.7hPa Calm     20% 0.00in /  0mm 0.0 W/m2
21:37 70.9 °F /  21.6 °C 27.9 °F /  -2.3 °C 29.85in /  1010.7hPa Calm     20% 0.00in /  0mm 0.0 W/m2
21:43 70.3 °F /  21.3 °C 27.3 °F /  -2.6 °C 29.85in /  1010.7hPa Calm     20% 0.00in /  0mm 0.0 W/m2
21:48 70.0 °F /  21.1 °C 28.2 °F /  -2.1 °C 29.85in /  1010.7hPa Calm     21% 0.00in /  0mm 0.0 W/m2
21:53 69.4 °F /  20.8 °C 27.9 °F /  -2.3 °C 29.86in /  1011.1hPa Calm     21% 0.00in /  0mm 0.0 W/m2
21:59 69.1 °F /  20.6 °C 28.6 °F /  -1.9 °C 29.85in /  1010.7hPa Calm     22% 0.00in /  0mm 0.0 W/m2
22:04 68.7 °F /  20.4 °C 28.4 °F /  -2 °C 29.85in /  1010.7hPa Calm     22% 0.00in /  0mm 0.0 W/m2
22:09 68.4 °F /  20.2 °C 28.0 °F /  -2.2 °C 29.86in /  1011.1hPa Calm     22% 0.00in /  0mm 0.0 W/m2
22:15 68.2 °F /  20.1 °C 27.9 °F /  -2.3 °C 29.86in /  1011.1hPa Calm     22% 0.00in /  0mm 0.0 W/m2
22:20 67.8 °F /  19.9 °C 27.5 °F /  -2.5 °C 29.86in /  1011.1hPa Calm     22% 0.00in /  0mm 0.0 W/m2
22:25 67.6 °F /  19.8 °C 27.5 °F /  -2.5 °C 29.86in /  1011.1hPa ENE 0.9mph /  1.4km/h 1.0mph /  1.6km/h 22% 0.00in /  0mm 0.0 W/m2
22:31 67.5 °F /  19.7 °C 27.3 °F /  -2.6 °C 29.86in /  1011.1hPa Calm   1.0mph /  1.6km/h 22% 0.00in /  0mm 0.0 W/m2
22:36 67.3 °F /  19.6 °C 27.1 °F /  -2.7 °C 29.86in /  1011.1hPa Calm   2.0mph /  3.2km/h 22% 0.00in /  0mm 0.0 W/m2
22:41 67.1 °F /  19.5 °C 27.0 °F /  -2.8 °C 29.86in /  1011.1hPa Calm     22% 0.00in /  0mm 0.0 W/m2
22:47 66.9 °F /  19.4 °C 26.8 °F /  -2.9 °C 29.86in /  1011.1hPa Calm     22% 0.00in /  0mm 0.0 W/m2
22:52 66.6 °F /  19.2 °C 26.6 °F /  -3 °C 29.86in /  1011.1hPa Calm   2.0mph /  3.2km/h 22% 0.00in /  0mm 0.0 W/m2
22:57 66.6 °F /  19.2 °C 27.7 °F /  -2.4 °C 29.86in /  1011.1hPa Calm   1.0mph /  1.6km/h 23% 0.00in /  0mm 0.0 W/m2
23:03 66.4 °F /  19.1 °C 27.5 °F /  -2.5 °C 29.86in /  1011.1hPa NNE 0.9mph /  1.4km/h 4.0mph /  6.4km/h 23% 0.00in /  0mm 0.0 W/m2
23:08 66.2 °F /  19 °C 27.3 °F /  -2.6 °C 29.86in /  1011.1hPa Calm   2.0mph /  3.2km/h 23% 0.00in /  0mm 0.0 W/m2
23:13 66.0 °F /  18.9 °C 27.1 °F /  -2.7 °C 29.86in /  1011.1hPa Calm   2.0mph /  3.2km/h 23% 0.00in /  0mm 0.0 W/m2
23:19 66.0 °F /  18.9 °C 27.1 °F /  -2.7 °C 29.86in /  1011.1hPa ENE 2.0mph /  3.2km/h 2.0mph /  3.2km/h 23% 0.00in /  0mm 0.0 W/m2
23:24 65.8 °F /  18.8 °C 28.0 °F /  -2.2 °C 29.86in /  1011.1hPa Calm     24% 0.00in /  0mm 0.0 W/m2
23:29 65.7 °F /  18.7 °C 27.9 °F /  -2.3 °C 29.85in /  1010.7hPa Calm     24% 0.00in /  0mm 0.0 W/m2
23:35 65.5 °F /  18.6 °C 27.7 °F /  -2.4 °C 29.85in /  1010.7hPa ENE 2.0mph /  3.2km/h 2.0mph /  3.2km/h 24% 0.00in /  0mm 0.0 W/m2
23:40 65.5 °F /  18.6 °C 27.7 °F /  -2.4 °C 29.85in /  1010.7hPa East 2.0mph /  3.2km/h 3.0mph /  4.8km/h 24% 0.00in /  0mm 0.0 W/m2
23:45 65.5 °F /  18.6 °C 27.7 °F /  -2.4 °C 29.85in /  1010.7hPa Calm   1.0mph /  1.6km/h 24% 0.00in /  0mm 0.0 W/m2
23:51 65.5 °F /  18.6 °C 27.7 °F /  -2.4 °C 29.85in /  1010.7hPa Calm   2.0mph /  3.2km/h 24% 0.00in /  0mm 0.0 W/m2
23:56 65.5 °F /  18.6 °C 27.7 °F /  -2.4 °C 29.85in /  1010.7hPa Calm   2.0mph /  3.2km/h 24% 0.00in /  0mm 0.0 W/m2
Olympia, Windhoek, Namibia
Compliments of Weather Underground - 3.25 mb